Time;durP1;ratioP1;P1;durP2;ratioP2;P2;SDS_P1;SDS_P2;PMS_P1;PMS_P2;Temp;Humidity;BMP_temperature;BMP_pressure;BME280_temperature;BME280_humidity;BME280_pressure;Samples;Min_cycle;Max_cycle;Signal;HPM_P1;HPM_P2
2022/12/08 00:01:10;;;;;;;;;;;;;;;5.52;60.64;100406.22;5327924;32;35442;-66
2022/12/08 00:04:13;;;;;;;;;;;;;;;5.16;61.78;100398.16;5312823;32;36334;-66
2022/12/08 00:10:35;;;;;;;;;;;;;;;6.01;59.51;100397.50;5316081;32;36255;-81
2022/12/08 00:13:52;;;;;;;;;;;;;;;5.74;60.92;100394.50;5310919;32;44516;-81
2022/12/08 00:16:55;;;;;;;;;;;;;;;6.27;58.83;100395.19;5325697;32;35623;-67
2022/12/08 00:19:57;;;;;;;;;;;;;;;6.04;58.75;100392.19;5313127;32;36282;-81
2022/12/08 00:22:59;;;;;;;;;;;;;;;6.31;57.87;100389.03;5326465;32;35895;-82
2022/12/08 00:26:02;;;;;;;;;;;;;;;5.69;59.77;100394.59;5313717;32;34686;-80
2022/12/08 00:29:04;;;;;;;;;;;;;;;6.10;58.33;100394.69;5320308;32;36066;-67
2022/12/08 00:32:06;;;;;;;;;;;;;;;5.92;59.00;100407.19;5308057;32;35328;-82
2022/12/08 00:35:08;;;;;;;;;;;;;;;5.51;59.40;100394.06;5310788;32;34980;-67
2022/12/08 00:38:10;;;;;;;;;;;;;;;6.31;57.70;100394.25;5327598;32;34878;-69
2022/12/08 00:41:13;;;;;;;;;;;;;;;5.91;58.50;100405.47;5313424;32;36099;-81
2022/12/08 00:44:17;;;;;;;;;;;;;;;5.74;59.72;100409.28;5299497;32;33913;-81
2022/12/08 00:47:19;;;;;;;;;;;;;;;6.27;57.71;100400.41;5313909;32;34387;-80
2022/12/08 00:50:25;;;;;;;;;;;;;;;5.75;59.76;100411.00;5329040;32;44677;-67
2022/12/08 00:53:27;;;;;;;;;;;;;;;5.63;60.14;100410.34;5316122;32;34967;-65
2022/12/08 00:56:29;;;;;;;;;;;;;;;6.09;58.38;100419.06;5308382;32;35964;-65
2022/12/08 00:59:31;;;;;;;;;;;;;;;6.12;57.30;100411.19;5327338;32;34762;-82
2022/12/08 01:02:33;;;;;;;;;;;;;;;5.65;59.04;100410.31;5310269;32;34726;-66
2022/12/08 01:05:35;;;;;;;;;;;;;;;5.14;61.19;100407.72;5326283;32;34717;-81
2022/12/08 01:08:37;;;;;;;;;;;;;;;5.76;59.47;100412.72;5312627;32;36153;-81
2022/12/08 01:11:39;;;;;;;;;;;;;;;5.67;59.53;100412.00;5326059;32;35496;-82
2022/12/08 01:14:41;;;;;;;;;;;;;;;4.69;62.68;100404.94;5314682;32;34568;-80
2022/12/08 01:17:43;;;;;;;;;;;;;;;5.28;61.08;100410.97;5313365;32;34629;-81
2022/12/08 01:20:45;;;;;;;;;;;;;;;4.67;63.29;100411.94;5331311;32;36448;-81
2022/12/08 01:23:47;;;;;;;;;;;;;;;4.91;63.22;100407.25;5307245;32;34713;-81
2022/12/08 01:26:49;;;;;;;;;;;;;;;6.17;58.63;100404.09;5326579;32;36103;-81
2022/12/08 01:29:51;;;;;;;;;;;;;;;6.00;58.98;100404.47;5310924;32;44756;-82
2022/12/08 01:32:53;;;;;;;;;;;;;;;5.72;59.43;100410.16;5323492;32;36264;-68
2022/12/08 01:35:55;;;;;;;;;;;;;;;5.95;59.23;100403.69;5317585;32;36055;-83
2022/12/08 01:38:58;;;;;;;;;;;;;;;5.52;59.94;100406.22;5311291;32;36184;-66
2022/12/08 01:41:59;;;;;;;;;;;;;;;4.72;63.51;100406.66;5310982;32;34822;-82
2022/12/08 01:45:03;;;;;;;;;;;;;;;5.57;60.62;100405.25;5298812;32;35826;-81
2022/12/08 01:48:06;;;;;;;;;;;;;;;5.63;60.12;100401.66;5330188;32;35835;-67
2022/12/08 01:51:08;;;;;;;;;;;;;;;5.88;59.24;100402.91;5316038;32;34823;-81
2022/12/08 01:54:09;;;;;;;;;;;;;;;5.85;58.78;100402.97;5318861;32;36308;-67
2022/12/08 01:57:14;;;;;;;;;;;;;;;5.14;59.87;100405.12;5316858;32;36869;-66
2022/12/08 02:00:16;;;;;;;;;;;;;;;5.22;60.54;100400.66;5307870;32;35334;-80
2022/12/08 02:03:33;;;;;;;;;;;;;;;5.34;59.77;100399.56;5322388;32;34746;-80
2022/12/08 02:06:37;;;;;;;;;;;;;;;4.74;61.63;100392.72;5307926;32;34834;-80
2022/12/08 02:09:39;;;;;;;;;;;;;;;5.40;60.36;100389.87;5326013;32;35442;-66
2022/12/08 02:12:41;;;;;;;;;;;;;;;4.46;63.26;100386.22;5311315;32;34936;-80
2022/12/08 02:15:46;;;;;;;;;;;;;;;4.11;65.02;100384.94;5310358;32;34633;-75
2022/12/08 02:19:02;;;;;;;;;;;;;;;4.17;64.23;100371.84;5325699;32;34860;-66
2022/12/08 02:22:43;;;;;;;;;;;;;;;3.80;65.43;100385.34;5306950;32;35135;-66
2022/12/08 02:25:45;;;;;;;;;;;;;;;3.57;66.92;100381.25;5325406;32;36465;-66
2022/12/08 02:29:06;;;;;;;;;;;;;;;3.80;65.87;100381.88;5311225;32;36617;-81
2022/12/08 02:32:43;;;;;;;;;;;;;;;3.93;65.97;100378.25;5310808;32;35013;-75
2022/12/08 02:35:51;;;;;;;;;;;;;;;3.94;65.48;100381.72;5287908;32;37972;-79
2022/12/08 02:39:02;;;;;;;;;;;;;;;3.23;69.30;100391.97;5307765;32;44889;-82
2022/12/08 02:42:12;;;;;;;;;;;;;;;4.88;63.82;100372.53;5300545;32;36184;-81
2022/12/08 02:45:20;;;;;;;;;;;;;;;4.06;65.33;100376.34;5313196;32;34837;-80
2022/12/08 02:48:22;;;;;;;;;;;;;;;5.14;62.31;100366.91;5305003;32;46367;-66
2022/12/08 02:51:24;;;;;;;;;;;;;;;4.83;62.80;100360.47;5329346;32;34566;-81
2022/12/08 02:54:26;;;;;;;;;;;;;;;4.37;64.82;100368.12;5312746;32;36172;-80
2022/12/08 02:57:47;;;;;;;;;;;;;;;4.10;65.00;100362.41;5324902;32;34645;-66
2022/12/08 03:00:57;;;;;;;;;;;;;;;4.10;66.05;100362.41;5308805;32;35790;-82
2022/12/08 03:04:02;;;;;;;;;;;;;;;3.59;67.74;100356.09;5309068;32;44636;-66
2022/12/08 03:07:12;;;;;;;;;;;;;;;4.28;64.94;100356.09;5311542;32;34746;-79
2022/12/08 03:10:16;;;;;;;;;;;;;;;3.80;65.87;100355.87;5306961;32;34681;-65
2022/12/08 03:13:20;;;;;;;;;;;;;;;3.59;67.60;100359.56;5319846;32;36243;-80
2022/12/08 03:16:23;;;;;;;;;;;;;;;4.15;65.55;100350.22;5311817;32;44843;-80
2022/12/08 03:19:26;;;;;;;;;;;;;;;3.82;66.33;100353.25;5314398;32;35338;-73
2022/12/08 03:22:28;;;;;;;;;;;;;;;3.68;67.89;100353.41;5329994;32;35541;-67
2022/12/08 03:25:31;;;;;;;;;;;;;;;4.07;66.32;100358.13;5312867;32;36066;-81
2022/12/08 03:28:32;;;;;;;;;;;;;;;4.37;64.98;100352.50;5324429;32;34757;-67
2022/12/08 03:31:36;;;;;;;;;;;;;;;4.26;66.03;100352.69;5311601;32;35945;-79
2022/12/08 03:34:38;;;;;;;;;;;;;;;4.43;64.42;100350.66;5323951;32;36606;-80
2022/12/08 03:37:40;;;;;;;;;;;;;;;3.96;65.42;100353.94;5310073;32;34700;-67
2022/12/08 03:40:43;;;;;;;;;;;;;;;3.42;67.66;100361.50;5311650;32;35180;-67
2022/12/08 03:43:52;;;;;;;;;;;;;;;3.84;65.94;100354.06;5298913;32;35590;-66
2022/12/08 03:46:53;;;;;;;;;;;;;;;4.04;65.49;100354.69;5305909;32;44546;-66
2022/12/08 03:49:55;;;;;;;;;;;;;;;3.65;67.66;100369.88;5328875;32;36019;-69
2022/12/08 03:52:57;;;;;;;;;;;;;;;3.73;67.14;100362.84;5310853;32;34760;-82
2022/12/08 03:55:59;;;;;;;;;;;;;;;3.96;65.71;100344.38;5322507;32;35894;-81
2022/12/08 03:59:02;;;;;;;;;;;;;;;3.69;66.86;100356.00;5317073;32;36107;-66
2022/12/08 04:02:03;;;;;;;;;;;;;;;3.73;66.77;100356.78;5313250;32;36285;-66
2022/12/08 04:05:06;;;;;;;;;;;;;;;4.42;64.67;100348.09;5324199;32;34945;-66
2022/12/08 04:08:07;;;;;;;;;;;;;;;4.05;66.03;100351.19;5302904;32;36096;-66
2022/12/08 04:11:10;;;;;;;;;;;;;;;4.61;64.49;100345.19;5324851;32;36353;-80
2022/12/08 04:14:11;;;;;;;;;;;;;;;4.02;65.78;100349.50;5307181;32;37794;-68
2022/12/08 04:17:13;;;;;;;;;;;;;;;3.88;66.52;100345.37;5319227;32;34695;-81
2022/12/08 04:20:15;;;;;;;;;;;;;;;4.16;65.73;100338.91;5318827;32;34798;-65
2022/12/08 04:23:17;;;;;;;;;;;;;;;4.65;63.79;100332.16;5311486;32;35893;-81
2022/12/08 04:26:19;;;;;;;;;;;;;;;4.11;65.65;100327.72;5325970;32;34617;-81
2022/12/08 04:29:21;;;;;;;;;;;;;;;4.70;64.38;100326.00;5310063;32;44405;-66
2022/12/08 04:32:23;;;;;;;;;;;;;;;4.49;65.07;100326.31;5323178;32;36030;-67
2022/12/08 04:35:25;;;;;;;;;;;;;;;4.05;65.95;100330.41;5299953;32;35070;-81
2022/12/08 04:38:27;;;;;;;;;;;;;;;4.11;66.61;100326.84;5318165;32;34843;-80
2022/12/08 04:41:29;;;;;;;;;;;;;;;3.68;68.05;100327.41;5306418;32;34547;-81
2022/12/08 04:44:31;;;;;;;;;;;;;;;3.69;67.93;100332.59;5289217;32;36534;-81
2022/12/08 04:47:33;;;;;;;;;;;;;;;3.79;67.51;100331.59;5323493;32;34999;-81
2022/12/08 04:50:35;;;;;;;;;;;;;;;3.87;67.31;100321.13;5310398;32;34777;-81
2022/12/08 04:53:37;;;;;;;;;;;;;;;3.95;67.63;100327.06;5321605;32;36461;-66
2022/12/08 04:56:46;;;;;;;;;;;;;;;3.92;66.54;100310.63;5305386;32;35700;-80
2022/12/08 04:59:48;;;;;;;;;;;;;;;3.58;68.12;100329.25;5315800;32;35491;-81
2022/12/08 05:02:50;;;;;;;;;;;;;;;4.48;64.97;100317.63;5320878;32;42936;-80
2022/12/08 05:05:52;;;;;;;;;;;;;;;3.98;66.93;100321.81;5309123;32;34756;-67
2022/12/08 05:08:54;;;;;;;;;;;;;;;4.65;64.37;100326.94;5321299;32;36163;-81
2022/12/08 05:11:56;;;;;;;;;;;;;;;4.89;63.89;100336.94;5310836;32;35956;-82
2022/12/08 05:14:58;;;;;;;;;;;;;;;4.24;65.20;100334.47;5329291;32;35052;-65
2022/12/08 05:18:00;;;;;;;;;;;;;;;4.16;66.02;100333.72;5300587;32;34978;-66
2022/12/08 05:21:02;;;;;;;;;;;;;;;3.79;67.63;100336.78;5314600;32;34684;-81
2022/12/08 05:24:04;;;;;;;;;;;;;;;4.72;64.90;100334.63;5318425;32;35769;-66
2022/12/08 05:27:06;;;;;;;;;;;;;;;4.58;64.54;100334.84;5306759;32;35865;-81
2022/12/08 05:30:08;;;;;;;;;;;;;;;3.87;67.22;100330.66;5325432;32;34816;-81
2022/12/08 05:33:10;;;;;;;;;;;;;;;4.40;66.51;100335.13;5301813;32;34792;-67
2022/12/08 05:36:12;;;;;;;;;;;;;;;4.21;67.38;100328.47;5323226;32;34864;-81
2022/12/08 05:39:14;;;;;;;;;;;;;;;4.17;68.07;100322.44;5295897;32;36076;-67
2022/12/08 05:42:16;;;;;;;;;;;;;;;4.65;65.34;100319.13;5303474;32;34879;-81
2022/12/08 05:45:25;;;;;;;;;;;;;;;5.01;64.57;100318.50;5306360;32;44384;-76
2022/12/08 05:48:27;;;;;;;;;;;;;;;4.58;65.16;100319.22;5307924;32;35011;-65
2022/12/08 05:51:29;;;;;;;;;;;;;;;3.94;68.46;100298.50;5325651;32;34670;-80
2022/12/08 05:54:31;;;;;;;;;;;;;;;3.68;69.12;100304.03;5305182;32;34684;-66
2022/12/08 05:57:33;;;;;;;;;;;;;;;3.73;68.45;100315.19;5322835;32;36127;-66
2022/12/08 06:00:35;;;;;;;;;;;;;;;4.02;68.40;100312.25;5308024;32;35129;-81
2022/12/08 06:03:36;;;;;;;;;;;;;;;4.56;65.92;100327.94;5311480;32;35937;-67
2022/12/08 06:06:39;;;;;;;;;;;;;;;4.68;65.59;100325.13;5323154;32;36222;-82
2022/12/08 06:09:43;;;;;;;;;;;;;;;4.82;64.50;100312.75;5308828;32;34737;-82
2022/12/08 06:12:45;;;;;;;;;;;;;;;5.40;63.31;100321.25;5318084;32;36293;-69
2022/12/08 06:15:47;;;;;;;;;;;;;;;4.79;64.16;100324.97;5310324;32;34709;-67
2022/12/08 06:18:49;;;;;;;;;;;;;;;5.22;63.91;100327.69;5321920;32;34739;-81
2022/12/08 06:21:51;;;;;;;;;;;;;;;4.09;66.93;100334.69;5312645;32;44445;-80
2022/12/08 06:24:53;;;;;;;;;;;;;;;4.50;65.92;100341.03;5310917;32;34974;-66
2022/12/08 06:27:55;;;;;;;;;;;;;;;4.33;66.69;100338.69;5320783;32;34683;-66
2022/12/08 06:30:57;;;;;;;;;;;;;;;4.26;66.97;100337.91;5305131;32;36124;-67
2022/12/08 06:33:59;;;;;;;;;;;;;;;4.25;66.21;100340.53;5321717;32;34406;-81
2022/12/08 06:37:01;;;;;;;;;;;;;;;4.26;66.25;100329.25;5302764;32;36190;-80
2022/12/08 06:40:03;;;;;;;;;;;;;;;4.12;67.46;100344.16;5317100;32;36047;-82
2022/12/08 06:43:05;;;;;;;;;;;;;;;3.82;68.33;100348.03;5290301;32;34829;-67
2022/12/08 06:46:09;;;;;;;;;;;;;;;4.50;67.36;100348.84;5300184;32;34823;-80
2022/12/08 06:49:11;;;;;;;;;;;;;;;4.08;67.79;100343.38;5317926;32;36375;-79
2022/12/08 06:52:14;;;;;;;;;;;;;;;4.70;66.36;100341.63;5306990;32;34731;-68
2022/12/08 06:55:16;;;;;;;;;;;;;;;4.48;65.72;100338.47;5314972;32;35336;-83
2022/12/08 06:58:38;;;;;;;;;;;;;;;4.57;65.37;100334.84;5316585;32;35020;-67
2022/12/08 07:01:40;;;;;;;;;;;;;;;4.69;65.00;100346.81;5309040;32;34927;-67
2022/12/08 07:04:42;;;;;;;;;;;;;;;4.82;66.03;100336.19;5308749;32;34556;-67
2022/12/08 07:07:44;;;;;;;;;;;;;;;4.35;66.64;100348.19;5306189;32;33688;-73
2022/12/08 07:10:46;;;;;;;;;;;;;;;4.51;66.69;100347.97;5317425;32;35845;-70
2022/12/08 07:13:48;;;;;;;;;;;;;;;4.73;65.67;100348.50;5300282;32;35364;-75
2022/12/08 07:16:51;;;;;;;;;;;;;;;5.73;62.52;100340.59;5317301;32;44574;-70
2022/12/08 07:19:53;;;;;;;;;;;;;;;6.18;60.61;100335.34;5298817;32;35072;-71
2022/12/08 07:22:55;;;;;;;;;;;;;;;4.55;64.85;100332.28;5303635;32;34569;-73
2022/12/08 07:26:01;;;;;;;;;;;;;;;4.73;66.47;100341.53;5320988;32;35910;-69
2022/12/08 07:29:03;;;;;;;;;;;;;;;4.61;65.64;100341.75;5309647;32;36160;-67
2022/12/08 07:32:06;;;;;;;;;;;;;;;6.07;61.76;100337.34;5317305;32;34465;-70
2022/12/08 07:35:08;;;;;;;;;;;;;;;5.91;62.16;100339.41;5310175;32;36929;-73
2022/12/08 07:38:10;;;;;;;;;;;;;;;5.29;64.13;100331.06;5321446;32;34571;-72
2022/12/08 07:41:13;;;;;;;;;;;;;;;4.63;66.64;100334.75;5310507;32;36465;-76
2022/12/08 07:44:15;;;;;;;;;;;;;;;4.96;66.51;100340.28;5274324;32;36776;-66
2022/12/08 07:47:17;;;;;;;;;;;;;;;4.71;67.56;100335.50;5325191;32;36497;-64
2022/12/08 07:50:19;;;;;;;;;;;;;;;4.76;67.87;100341.47;5310205;32;34875;-63
2022/12/08 07:53:21;;;;;;;;;;;;;;;4.89;67.21;100340.44;5326178;32;44439;-65
2022/12/08 07:56:23;;;;;;;;;;;;;;;4.96;67.06;100342.91;5314241;32;34735;-71
2022/12/08 07:59:25;;;;;;;;;;;;;;;5.86;64.71;100316.03;5322498;32;34800;-75
2022/12/08 08:02:27;;;;;;;;;;;;;;;5.29;65.09;100328.44;5312950;32;35166;-67
2022/12/08 08:05:29;;;;;;;;;;;;;;;5.09;66.73;100327.06;5313578;32;34821;-78
2022/12/08 08:08:31;;;;;;;;;;;;;;;4.59;67.50;100333.09;5311596;32;34719;-76
2022/12/08 08:11:34;;;;;;;;;;;;;;;5.83;64.13;100336.06;5317819;32;34952;-64
2022/12/08 08:14:36;;;;;;;;;;;;;;;5.39;64.63;100332.59;5326896;32;34711;-70
2022/12/08 08:17:38;;;;;;;;;;;;;;;5.88;63.75;100331.63;5313791;32;35976;-66
2022/12/08 08:20:40;;;;;;;;;;;;;;;5.63;64.40;100331.25;5328024;32;34852;-65
2022/12/08 08:23:42;;;;;;;;;;;;;;;6.49;60.79;100319.84;5315182;32;34791;-66
2022/12/08 08:26:44;;;;;;;;;;;;;;;7.22;58.86;100320.66;5312569;32;36264;-77
2022/12/08 08:29:46;;;;;;;;;;;;;;;7.72;56.97;100328.00;5321930;32;35917;-72
2022/12/08 08:32:48;;;;;;;;;;;;;;;6.96;58.62;100313.50;5316705;32;34773;-69
2022/12/08 08:35:50;;;;;;;;;;;;;;;6.63;60.52;100306.47;5313548;32;44964;-73
2022/12/08 08:38:52;;;;;;;;;;;;;;;6.87;60.47;100316.31;5296971;32;37328;-78
2022/12/08 08:41:54;;;;;;;;;;;;;;;6.32;62.13;100328.09;5315262;32;33052;-66
2022/12/08 08:44:56;;;;;;;;;;;;;;;6.89;60.57;100324.13;5290980;32;35499;-88
2022/12/08 08:47:58;;;;;;;;;;;;;;;7.00;59.54;100327.31;5322946;32;34795;-67
2022/12/08 08:51:10;;;;;;;;;;;;;;;6.83;59.20;100321.66;5319708;32;35138;-80
2022/12/08 08:54:12;;;;;;;;;;;;;;;6.03;62.63;100320.03;5319585;32;35388;-84
2022/12/08 08:57:15;;;;;;;;;;;;;;;6.39;60.78;100316.62;5324891;32;35437;-76
2022/12/08 09:00:22;;;;;;;;;;;;;;;6.80;60.20;100327.81;5318381;32;44908;-65
2022/12/08 09:03:24;;;;;;;;;;;;;;;6.48;61.52;100326.84;5321885;32;34780;-78
2022/12/08 09:06:27;;;;;;;;;;;;;;;7.11;60.10;100306.16;5315333;32;36097;-75
2022/12/08 09:09:30;;;;;;;;;;;;;;;6.56;61.51;100297.91;5296551;32;34975;-67
2022/12/08 09:12:32;;;;;;;;;;;;;;;7.21;58.85;100305.00;5328767;32;34647;-74
2022/12/08 09:15:34;;;;;;;;;;;;;;;8.53;54.83;100296.81;5279876;32;985665;-67
2022/12/08 09:18:37;;;;;;;;;;;;;;;8.49;54.12;100314.38;5331566;32;35234;-68
2022/12/08 09:21:40;;;;;;;;;;;;;;;5.89;60.76;100310.72;5308891;32;34626;-70
2022/12/08 09:24:42;;;;;;;;;;;;;;;6.28;60.69;100286.44;5310141;32;34961;-71
2022/12/08 09:27:44;;;;;;;;;;;;;;;6.43;60.13;100281.69;5313666;32;35997;-68
2022/12/08 09:30:46;;;;;;;;;;;;;;;6.12;61.83;100291.16;5311359;32;35173;-70
2022/12/08 09:33:51;;;;;;;;;;;;;;;7.76;57.05;100291.25;5320781;32;34804;-71
2022/12/08 09:36:53;;;;;;;;;;;;;;;6.82;58.95;100299.03;5279479;32;45083;-68
2022/12/08 09:39:56;;;;;;;;;;;;;;;7.88;56.02;100293.50;5314869;32;34764;-75
2022/12/08 09:43:02;;;;;;;;;;;;;;;7.15;56.90;100298.19;5291083;32;34637;-72
2022/12/08 09:46:05;;;;;;;;;;;;;;;6.31;60.26;100286.34;5300254;32;34653;-74
2022/12/08 09:49:10;;;;;;;;;;;;;;;6.35;60.20;100282.78;5316264;32;36672;-75
2022/12/08 09:52:15;;;;;;;;;;;;;;;7.11;57.90;100275.63;5308091;32;34363;-69
2022/12/08 09:55:22;;;;;;;;;;;;;;;7.73;56.09;100253.84;5331151;32;35112;-68
2022/12/08 09:58:27;;;;;;;;;;;;;;;6.39;60.55;100253.97;5294147;32;44303;-71
2022/12/08 10:01:30;;;;;;;;;;;;;;;6.87;60.04;100250.16;5321873;32;36268;-68
2022/12/08 10:04:35;;;;;;;;;;;;;;;6.15;61.51;100254.53;5306486;32;34940;-69
2022/12/08 10:07:43;;;;;;;;;;;;;;;6.57;61.02;100247.44;5301568;32;34528;-68
2022/12/08 10:10:58;;;;;;;;;;;;;;;6.77;59.66;100250.41;5314558;32;39780;-71
2022/12/08 10:14:21;;;;;;;;;;;;;;;6.41;60.91;100254.78;5305570;32;45386;-79
2022/12/08 10:17:23;;;;;;;;;;;;;;;7.37;58.41;100246.16;5323948;32;44701;-80
2022/12/08 10:20:34;;;;;;;;;;;;;;;8.35;56.04;100257.19;5308169;32;34726;-70
2022/12/08 10:23:37;;;;;;;;;;;;;;;8.65;54.23;100252.72;5309709;32;36138;-83
2022/12/08 10:26:39;;;;;;;;;;;;;;;8.00;55.54;100252.19;5309672;32;36142;-72
2022/12/08 10:29:41;;;;;;;;;;;;;;;6.29;61.75;100252.44;5310937;32;34709;-88
2022/12/08 10:32:44;;;;;;;;;;;;;;;6.65;60.56;100244.63;5319841;32;35634;-76
2022/12/08 10:35:46;;;;;;;;;;;;;;;7.15;58.41;100243.31;5306883;32;36074;-75
2022/12/08 10:38:48;;;;;;;;;;;;;;;7.50;58.41;100229.22;5306056;32;35285;-75
2022/12/08 10:41:50;;;;;;;;;;;;;;;7.47;57.73;100224.09;5312963;32;43622;-78
2022/12/08 10:44:52;;;;;;;;;;;;;;;7.49;58.57;100216.22;5296100;32;33886;-76
2022/12/08 10:47:59;;;;;;;;;;;;;;;6.99;58.28;100219.31;5324901;32;36249;-74
2022/12/08 10:51:04;;;;;;;;;;;;;;;8.44;54.99;100206.28;5304501;32;35507;-66
2022/12/08 10:54:24;;;;;;;;;;;;;;;6.94;58.49;100208.12;5324468;32;34767;-68
2022/12/08 10:57:26;;;;;;;;;;;;;;;8.09;56.03;100195.16;5309062;32;44787;-79
2022/12/08 11:00:29;;;;;;;;;;;;;;;7.49;57.77;100190.91;5313147;32;34892;-66
2022/12/08 11:03:35;;;;;;;;;;;;;;;7.78;55.67;100184.78;5324814;32;34962;-72
2022/12/08 11:06:37;;;;;;;;;;;;;;;7.13;58.72;100184.13;5302280;32;34987;-73
2022/12/08 11:09:39;;;;;;;;;;;;;;;6.94;60.04;100186.37;5320429;32;34666;-70
2022/12/08 11:12:42;;;;;;;;;;;;;;;7.16;59.54;100178.81;5297398;32;38724;-69
2022/12/08 11:15:44;;;;;;;;;;;;;;;8.00;56.41;100168.44;5317307;32;35052;-68
2022/12/08 11:18:48;;;;;;;;;;;;;;;8.70;50.61;100160.88;5305456;32;34712;-75
2022/12/08 11:21:50;;;;;;;;;;;;;;;7.51;52.63;100164.69;5304993;32;44301;-81
2022/12/08 11:25:11;;;;;;;;;;;;;;;7.77;51.25;100162.16;5324996;32;34666;-73
2022/12/08 11:28:13;;;;;;;;;;;;;;;8.19;49.31;100153.84;5303240;32;35976;-70
2022/12/08 11:31:35;;;;;;;;;;;;;;;8.51;48.31;100151.94;5310019;32;36044;-70
2022/12/08 11:34:40;;;;;;;;;;;;;;;8.33;49.56;100146.38;5307370;32;35960;-70
2022/12/08 11:37:42;;;;;;;;;;;;;;;8.18;50.04;100125.94;5289399;32;34720;-69
2022/12/08 11:40:44;;;;;;;;;;;;;;;6.79;54.28;100127.59;5320183;32;34523;-72
2022/12/08 11:43:51;;;;;;;;;;;;;;;7.91;51.01;100117.22;5270620;32;36474;-71
2022/12/08 11:46:55;;;;;;;;;;;;;;;6.70;53.60;100099.13;5323426;32;43178;-70
2022/12/08 11:50:14;;;;;;;;;;;;;;;6.72;53.63;100097.31;5308566;32;34773;-73
2022/12/08 11:53:49;;;;;;;;;;;;;;;6.53;53.50;100093.50;5307921;32;43583;-76
2022/12/08 11:56:55;;;;;;;;;;;;;;;7.18;52.40;100089.00;5267966;32;44064;-72
2022/12/08 11:59:57;;;;;;;;;;;;;;;7.34;52.11;100086.75;5309882;32;34864;-73
2022/12/08 12:03:02;;;;;;;;;;;;;;;7.92;51.24;100086.66;5321516;32;34862;-77
2022/12/08 12:06:23;;;;;;;;;;;;;;;6.74;53.48;100087.66;5303863;32;37948;-69
2022/12/08 12:10:00;;;;;;;;;;;;;;;7.46;52.15;100088.16;5309916;32;34979;-70
2022/12/08 12:13:18;;;;;;;;;;;;;;;7.14;53.70;100087.38;5327666;32;34906;-85
2022/12/08 12:16:38;;;;;;;;;;;;;;;8.62;49.88;100079.03;5310830;32;36193;-69
2022/12/08 12:19:40;;;;;;;;;;;;;;;7.50;52.08;100090.63;5309477;32;36173;-68
2022/12/08 12:22:43;;;;;;;;;;;;;;;8.39;50.23;100080.72;5331729;32;35006;-71
2022/12/08 12:25:45;;;;;;;;;;;;;;;8.37;50.05;100079.94;5295011;32;36338;-68
2022/12/08 12:28:53;;;;;;;;;;;;;;;8.25;49.63;100084.72;5314569;32;36230;-70
2022/12/08 12:31:58;;;;;;;;;;;;;;;7.54;51.88;100087.03;5311721;32;44152;-70
2022/12/08 12:35:00;;;;;;;;;;;;;;;8.15;50.52;100092.00;5315876;32;35996;-67
2022/12/08 12:38:59;;;;;;;;;;;;;;;8.07;49.89;100087.03;5289516;32;36783;-71
2022/12/08 12:41:42;;;;;;;;;;;;;;;7.47;50.53;100095.09;5300944;32;45007;-73
2022/12/08 12:44:44;;;;;;;;;;;;;;;7.61;49.82;100098.16;5310365;32;34814;-90
2022/12/08 12:47:48;;;;;;;;;;;;;;;7.89;49.18;100092.88;5312503;32;34812;-67
2022/12/08 12:50:56;;;;;;;;;;;;;;;7.98;48.61;100092.56;5320238;32;44807;-69
2022/12/08 12:54:18;;;;;;;;;;;;;;;8.44;48.01;100058.75;5308818;32;34794;-69
2022/12/08 12:57:24;;;;;;;;;;;;;;;7.18;49.83;100086.38;5304565;32;44678;-74
2022/12/08 13:00:26;;;;;;;;;;;;;;;7.48;49.59;100073.28;5319196;32;35367;-69
2022/12/08 13:03:28;;;;;;;;;;;;;;;8.65;47.43;100052.75;5322247;32;37441;-80
2022/12/08 13:06:41;;;;;;;;;;;;;;;6.95;51.73;100066.12;5328149;32;35966;-72
2022/12/08 13:09:45;;;;;;;;;;;;;;;7.24;51.38;100052.22;5305741;32;36976;-72
2022/12/08 13:13:00;;;;;;;;;;;;;;;8.78;48.33;100053.16;5315315;32;34759;-84
2022/12/08 13:16:08;;;;;;;;;;;;;;;8.34;49.62;100052.97;5322552;32;34543;-65
2022/12/08 13:19:19;;;;;;;;;;;;;;;7.80;50.97;100062.66;5312807;32;34830;-80
2022/12/08 13:22:40;;;;;;;;;;;;;;;6.95;54.26;100055.69;5322714;32;44512;-85
2022/12/08 13:25:42;;;;;;;;;;;;;;;7.65;51.67;100059.66;5326885;32;35887;-92
2022/12/08 13:29:02;;;;;;;;;;;;;;;7.04;52.59;100054.59;5320827;32;35311;-66
2022/12/08 13:32:08;;;;;;;;;;;;;;;7.96;50.36;100049.03;5327938;32;35004;-66
2022/12/08 13:35:13;;;;;;;;;;;;;;;7.46;51.09;100051.53;5311002;32;35076;-78
2022/12/08 13:38:15;;;;;;;;;;;;;;;7.49;51.12;100052.31;5318318;32;35063;-64
2022/12/08 13:41:19;;;;;;;;;;;;;;;7.64;50.30;100052.72;5297218;32;34601;-63
2022/12/08 13:44:22;;;;;;;;;;;;;;;7.42;50.28;100055.19;5297539;32;47067;-80
2022/12/08 13:48:01;;;;;;;;;;;;;;;7.88;50.12;100070.25;5318716;32;35021;-76
2022/12/08 13:51:28;;;;;;;;;;;;;;;8.49;49.31;100057.69;5309444;32;36007;-77
2022/12/08 13:54:50;;;;;;;;;;;;;;;6.81;55.65;100051.78;5323452;32;45127;-88
2022/12/08 13:58:16;;;;;;;;;;;;;;;8.05;53.53;100052.22;5325037;32;36818;-83
2022/12/08 14:01:19;;;;;;;;;;;;;;;7.08;56.07;100058.78;5311766;32;35337;-80
2022/12/08 14:04:21;;;;;;;;;;;;;;;7.92;54.11;100050.91;5320943;32;44533;-85
2022/12/08 14:07:43;;;;;;;;;;;;;;;6.82;56.01;100050.87;5308655;32;34949;-65
2022/12/08 14:10:46;;;;;;;;;;;;;;;7.26;54.44;100045.16;5327766;32;36335;-79
2022/12/08 14:13:48;;;;;;;;;;;;;;;7.43;53.16;100051.66;5335661;32;36956;-80
2022/12/08 14:16:54;;;;;;;;;;;;;;;6.91;55.29;100050.63;5309988;32;36781;-78
2022/12/08 14:20:11;;;;;;;;;;;;;;;6.49;55.15;100051.78;5323979;32;34747;-67
2022/12/08 14:23:15;;;;;;;;;;;;;;;6.97;53.59;100058.28;5306485;32;35132;-84
2022/12/08 14:26:20;;;;;;;;;;;;;;;6.66;54.04;100051.31;5332451;32;36933;-68
2022/12/08 14:29:45;;;;;;;;;;;;;;;6.70;55.12;100052.09;5311545;32;34876;-78
2022/12/08 14:32:53;;;;;;;;;;;;;;;7.40;53.25;100057.81;5304084;32;34928;-65
2022/12/08 14:35:56;;;;;;;;;;;;;;;8.04;51.93;100058.34;5314852;32;44579;-81
2022/12/08 14:38:58;;;;;;;;;;;;;;;6.50;54.04;100065.69;5303916;32;34842;-81
2022/12/08 14:42:00;;;;;;;;;;;;;;;6.55;54.96;100057.75;5304436;32;36128;-69
2022/12/08 14:45:05;;;;;;;;;;;;;;;6.59;54.42;100054.16;5298233;32;34544;-67
2022/12/08 14:48:25;;;;;;;;;;;;;;;6.55;54.28;100068.19;5308047;32;34584;-67
2022/12/08 14:51:30;;;;;;;;;;;;;;;6.25;55.31;100068.13;5328022;32;44573;-86
2022/12/08 14:54:32;;;;;;;;;;;;;;;6.65;54.60;100056.59;5311168;32;34728;-80
2022/12/08 14:57:35;;;;;;;;;;;;;;;6.75;54.05;100058.03;5321120;32;34886;-69
2022/12/08 15:00:43;;;;;;;;;;;;;;;7.06;53.45;100058.00;5303139;32;36547;-67
2022/12/08 15:03:45;;;;;;;;;;;;;;;7.49;53.10;100056.69;5310924;32;35763;-76
2022/12/08 15:06:53;;;;;;;;;;;;;;;6.64;57.14;100052.28;5308613;32;44446;-76
2022/12/08 15:10:13;;;;;;;;;;;;;;;7.22;54.88;100047.94;5290880;32;34851;-68
2022/12/08 15:13:15;;;;;;;;;;;;;;;6.43;57.46;100051.94;5312376;32;34895;-69
2022/12/08 15:16:41;;;;;;;;;;;;;;;7.05;54.78;100044.06;5298403;32;35305;-69
2022/12/08 15:19:43;;;;;;;;;;;;;;;6.15;57.13;100048.38;5301263;32;34705;-76
2022/12/08 15:22:45;;;;;;;;;;;;;;;6.60;56.69;100042.81;5301151;32;36074;-76
2022/12/08 15:25:47;;;;;;;;;;;;;;;6.26;57.35;100048.13;5301922;32;34875;-68
2022/12/08 15:28:49;;;;;;;;;;;;;;;6.53;55.49;100041.28;5322739;32;35437;-75
2022/12/08 15:31:53;;;;;;;;;;;;;;;6.77;55.61;100049.28;5299269;32;44594;-75
2022/12/08 15:34:55;;;;;;;;;;;;;;;7.01;55.17;100039.84;5312138;32;36175;-67
2022/12/08 15:37:56;;;;;;;;;;;;;;;6.53;56.85;100046.50;5296972;32;35713;-69
2022/12/08 15:40:58;;;;;;;;;;;;;;;6.62;55.94;100041.84;5310238;32;36073;-74
2022/12/08 15:44:00;;;;;;;;;;;;;;;7.38;54.40;100028.25;5290120;32;35765;-79
2022/12/08 15:47:02;;;;;;;;;;;;;;;7.11;55.39;100026.50;5301967;32;35265;-68
2022/12/08 15:50:05;;;;;;;;;;;;;;;8.11;52.28;100017.97;5318474;32;34844;-67
2022/12/08 15:53:11;;;;;;;;;;;;;;;7.94;52.70;100009.00;5304436;32;36393;-75
2022/12/08 15:56:13;;;;;;;;;;;;;;;8.02;51.86;100002.56;5317681;32;35485;-67
2022/12/08 15:59:31;;;;;;;;;;;;;;;7.57;53.43;100008.44;5304778;32;36371;-74
2022/12/08 16:02:33;;;;;;;;;;;;;;;6.33;56.61;100015.72;5297725;32;36054;-67
2022/12/08 16:05:56;;;;;;;;;;;;;;;6.58;56.30;100015.91;5316309;32;48021;-76
2022/12/08 16:09:19;;;;;;;;;;;;;;;6.58;56.24;100011.53;5309539;32;35081;-67